sensor_id;sensor_type;location;lat;lon;timestamp;pressure;altitude;pressure_sealevel;temperature;humidity
71107;BME280;58763;47.982;11.516;2023-09-18T00:01:47;93840.88;;;19.55;64.05
71107;BME280;58763;47.982;11.516;2023-09-18T00:04:14;93838.91;;;19.55;64.21
71107;BME280;58763;47.982;11.516;2023-09-18T00:06:39;93836.75;;;19.49;64.01
71107;BME280;58763;47.982;11.516;2023-09-18T00:09:05;93838.19;;;19.58;63.52
71107;BME280;58763;47.982;11.516;2023-09-18T00:11:32;93830.69;;;19.55;64.00
71107;BME280;58763;47.982;11.516;2023-09-18T00:13:59;93825.78;;;19.49;63.52
71107;BME280;58763;47.982;11.516;2023-09-18T00:16:24;93824.09;;;19.44;63.87
71107;BME280;58763;47.982;11.516;2023-09-18T00:18:52;93832.59;;;19.39;64.08
71107;BME280;58763;47.982;11.516;2023-09-18T00:21:19;93831.53;;;19.44;63.99
71107;BME280;58763;47.982;11.516;2023-09-18T00:23:44;93824.56;;;19.46;63.69
71107;BME280;58763;47.982;11.516;2023-09-18T00:26:11;93812.34;;;19.44;63.33
71107;BME280;58763;47.982;11.516;2023-09-18T00:28:37;93808.81;;;19.43;63.17
71107;BME280;58763;47.982;11.516;2023-09-18T00:31:02;93806.94;;;19.47;63.06
71107;BME280;58763;47.982;11.516;2023-09-18T00:33:28;93802.72;;;19.50;62.66
71107;BME280;58763;47.982;11.516;2023-09-18T00:35:54;93799.34;;;19.41;62.64
71107;BME280;58763;47.982;11.516;2023-09-18T00:38:19;93787.47;;;19.37;62.83
71107;BME280;58763;47.982;11.516;2023-09-18T00:40:45;93781.19;;;19.36;62.52
71107;BME280;58763;47.982;11.516;2023-09-18T00:43:10;93782.09;;;19.28;62.84
71107;BME280;58763;47.982;11.516;2023-09-18T00:45:44;93784.72;;;19.37;62.50
71107;BME280;58763;47.982;11.516;2023-09-18T00:48:11;93792.72;;;19.42;62.43
71107;BME280;58763;47.982;11.516;2023-09-18T00:50:37;93788.00;;;19.42;62.47
71107;BME280;58763;47.982;11.516;2023-09-18T00:53:04;93791.34;;;19.36;62.66
71107;BME280;58763;47.982;11.516;2023-09-18T00:55:33;93792.81;;;19.33;62.62
71107;BME280;58763;47.982;11.516;2023-09-18T00:57:59;93796.84;;;19.36;62.71
71107;BME280;58763;47.982;11.516;2023-09-18T01:00:24;93789.88;;;19.26;62.97
71107;BME280;58763;47.982;11.516;2023-09-18T01:02:50;93779.31;;;19.12;63.48
71107;BME280;58763;47.982;11.516;2023-09-18T01:05:16;93776.38;;;19.05;63.63
71107;BME280;58763;47.982;11.516;2023-09-18T01:07:42;93768.25;;;19.09;63.21
71107;BME280;58763;47.982;11.516;2023-09-18T01:10:08;93774.22;;;18.99;63.70
71107;BME280;58763;47.982;11.516;2023-09-18T01:12:45;93766.25;;;18.94;63.70
71107;BME280;58763;47.982;11.516;2023-09-18T01:17:45;93772.78;;;18.77;64.30
71107;BME280;58763;47.982;11.516;2023-09-18T01:20:12;93763.81;;;18.65;64.38
71107;BME280;58763;47.982;11.516;2023-09-18T01:22:38;93773.63;;;18.66;64.35
71107;BME280;58763;47.982;11.516;2023-09-18T01:25:03;93766.19;;;18.66;64.63
71107;BME280;58763;47.982;11.516;2023-09-18T01:27:31;93767.25;;;18.61;64.51
71107;BME280;58763;47.982;11.516;2023-09-18T01:29:56;93767.81;;;18.43;65.77
71107;BME280;58763;47.982;11.516;2023-09-18T01:32:24;93769.75;;;18.42;65.65
71107;BME280;58763;47.982;11.516;2023-09-18T01:34:53;93766.34;;;18.45;65.90
71107;BME280;58763;47.982;11.516;2023-09-18T01:37:22;93771.22;;;18.40;65.28
71107;BME280;58763;47.982;11.516;2023-09-18T01:39:50;93758.22;;;18.37;65.72
71107;BME280;58763;47.982;11.516;2023-09-18T01:42:16;93756.50;;;18.32;65.96
71107;BME280;58763;47.982;11.516;2023-09-18T01:44:44;93749.56;;;18.35;65.90
71107;BME280;58763;47.982;11.516;2023-09-18T01:47:13;93750.25;;;18.32;66.17
71107;BME280;58763;47.982;11.516;2023-09-18T01:49:40;93746.28;;;18.29;66.15
71107;BME280;58763;47.982;11.516;2023-09-18T01:52:07;93736.91;;;18.30;65.89
71107;BME280;58763;47.982;11.516;2023-09-18T01:54:33;93737.25;;;18.29;65.79
71107;BME280;58763;47.982;11.516;2023-09-18T01:56:59;93730.75;;;18.33;65.20
71107;BME280;58763;47.982;11.516;2023-09-18T01:59:25;93727.88;;;18.42;64.42
71107;BME280;58763;47.982;11.516;2023-09-18T02:01:52;93725.59;;;18.44;63.80
71107;BME280;58763;47.982;11.516;2023-09-18T02:04:19;93720.25;;;18.47;63.29
71107;BME280;58763;47.982;11.516;2023-09-18T02:06:46;93722.66;;;18.49;63.47
71107;BME280;58763;47.982;11.516;2023-09-18T02:09:12;93726.84;;;18.58;63.27
71107;BME280;58763;47.982;11.516;2023-09-18T02:11:40;93723.09;;;18.51;63.60
71107;BME280;58763;47.982;11.516;2023-09-18T02:14:06;93725.06;;;18.50;63.27
71107;BME280;58763;47.982;11.516;2023-09-18T02:16:37;93723.44;;;18.49;63.44
71107;BME280;58763;47.982;11.516;2023-09-18T02:19:03;93718.19;;;18.44;64.17
71107;BME280;58763;47.982;11.516;2023-09-18T02:21:30;93717.72;;;18.42;63.94
71107;BME280;58763;47.982;11.516;2023-09-18T02:23:56;93707.91;;;18.41;64.05
71107;BME280;58763;47.982;11.516;2023-09-18T02:26:23;93727.19;;;18.45;63.83
71107;BME280;58763;47.982;11.516;2023-09-18T02:28:48;93717.63;;;18.39;64.00
71107;BME280;58763;47.982;11.516;2023-09-18T02:31:14;93723.66;;;18.32;64.27
71107;BME280;58763;47.982;11.516;2023-09-18T02:33:42;93717.66;;;18.27;64.39
71107;BME280;58763;47.982;11.516;2023-09-18T02:36:08;93714.56;;;18.28;64.55
71107;BME280;58763;47.982;11.516;2023-09-18T02:38:34;93713.44;;;18.29;64.31
71107;BME280;58763;47.982;11.516;2023-09-18T02:41:00;93699.06;;;18.20;64.79
71107;BME280;58763;47.982;11.516;2023-09-18T02:43:25;93701.81;;;18.20;64.48
71107;BME280;58763;47.982;11.516;2023-09-18T02:45:52;93698.38;;;18.23;64.41
71107;BME280;58763;47.982;11.516;2023-09-18T02:48:19;93688.69;;;18.26;64.33
71107;BME280;58763;47.982;11.516;2023-09-18T02:50:45;93686.38;;;18.28;64.15
71107;BME280;58763;47.982;11.516;2023-09-18T02:53:18;93680.31;;;18.34;63.95
71107;BME280;58763;47.982;11.516;2023-09-18T02:55:46;93683.97;;;18.38;63.30
71107;BME280;58763;47.982;11.516;2023-09-18T02:58:12;93674.06;;;18.46;63.11
71107;BME280;58763;47.982;11.516;2023-09-18T03:00:44;93678.97;;;18.52;62.59
71107;BME280;58763;47.982;11.516;2023-09-18T03:03:10;93675.66;;;18.47;62.84
71107;BME280;58763;47.982;11.516;2023-09-18T03:05:37;93676.81;;;18.46;62.97
71107;BME280;58763;47.982;11.516;2023-09-18T03:08:03;93666.41;;;18.39;63.10
71107;BME280;58763;47.982;11.516;2023-09-18T03:10:39;93655.91;;;18.41;62.82
71107;BME280;58763;47.982;11.516;2023-09-18T03:13:06;93656.69;;;18.42;62.56
71107;BME280;58763;47.982;11.516;2023-09-18T03:15:33;93646.56;;;18.42;62.61
71107;BME280;58763;47.982;11.516;2023-09-18T03:17:59;93655.56;;;18.55;62.11
71107;BME280;58763;47.982;11.516;2023-09-18T03:20:26;93658.63;;;18.53;62.81
71107;BME280;58763;47.982;11.516;2023-09-18T03:22:54;93657.75;;;18.49;62.76
71107;BME280;58763;47.982;11.516;2023-09-18T03:25:20;93657.75;;;18.49;62.39
71107;BME280;58763;47.982;11.516;2023-09-18T03:27:47;93662.63;;;18.44;62.58
71107;BME280;58763;47.982;11.516;2023-09-18T03:30:13;93656.13;;;18.48;62.01
71107;BME280;58763;47.982;11.516;2023-09-18T03:32:41;93657.75;;;18.49;61.75
71107;BME280;58763;47.982;11.516;2023-09-18T03:35:08;93666.03;;;18.53;61.15
71107;BME280;58763;47.982;11.516;2023-09-18T03:37:41;93650.28;;;18.62;60.84
71107;BME280;58763;47.982;11.516;2023-09-18T03:40:08;93650.63;;;18.60;60.96
71107;BME280;58763;47.982;11.516;2023-09-18T03:42:34;93637.13;;;18.68;60.46
71107;BME280;58763;47.982;11.516;2023-09-18T03:44:59;93639.88;;;18.68;60.31
71107;BME280;58763;47.982;11.516;2023-09-18T03:47:25;93634.84;;;18.70;60.04
71107;BME280;58763;47.982;11.516;2023-09-18T03:49:50;93632.47;;;18.68;60.05
71107;BME280;58763;47.982;11.516;2023-09-18T03:52:16;93624.69;;;18.70;60.14
71107;BME280;58763;47.982;11.516;2023-09-18T03:54:42;93621.63;;;18.72;59.91
71107;BME280;58763;47.982;11.516;2023-09-18T03:57:08;93612.00;;;18.78;59.47
71107;BME280;58763;47.982;11.516;2023-09-18T03:59:33;93614.72;;;18.78;59.50
71107;BME280;58763;47.982;11.516;2023-09-18T04:01:59;93613.91;;;18.77;59.25
71107;BME280;58763;47.982;11.516;2023-09-18T04:04:25;93615.16;;;18.80;59.27
71107;BME280;58763;47.982;11.516;2023-09-18T04:06:50;93609.81;;;18.83;59.10
71107;BME280;58763;47.982;11.516;2023-09-18T04:09:15;93613.41;;;18.87;58.71
71107;BME280;58763;47.982;11.516;2023-09-18T04:11:41;93607.13;;;18.87;58.61
71107;BME280;58763;47.982;11.516;2023-09-18T04:14:06;93599.19;;;18.82;58.72
71107;BME280;58763;47.982;11.516;2023-09-18T04:16:32;93601.97;;;18.70;59.09
71107;BME280;58763;47.982;11.516;2023-09-18T04:19:03;93601.53;;;18.68;59.28
71107;BME280;58763;47.982;11.516;2023-09-18T04:21:29;93591.00;;;18.70;59.12
71107;BME280;58763;47.982;11.516;2023-09-18T04:23:55;93600.53;;;18.60;59.19
71107;BME280;58763;47.982;11.516;2023-09-18T04:26:26;93594.91;;;18.69;59.06
71107;BME280;58763;47.982;11.516;2023-09-18T04:28:57;93592.88;;;18.66;58.96
71107;BME280;58763;47.982;11.516;2023-09-18T04:31:22;93586.75;;;18.56;58.94
71107;BME280;58763;47.982;11.516;2023-09-18T04:33:48;93581.97;;;18.53;58.62
71107;BME280;58763;47.982;11.516;2023-09-18T04:36:13;93592.22;;;18.56;58.79
71107;BME280;58763;47.982;11.516;2023-09-18T04:38:39;93594.72;;;18.61;58.61
71107;BME280;58763;47.982;11.516;2023-09-18T04:41:04;93586.75;;;18.56;58.61
71107;BME280;58763;47.982;11.516;2023-09-18T04:43:34;93592.91;;;18.53;58.62
71107;BME280;58763;47.982;11.516;2023-09-18T04:46:01;93592.91;;;18.53;58.71
71107;BME280;58763;47.982;11.516;2023-09-18T04:48:29;93595.31;;;18.55;58.82
71107;BME280;58763;47.982;11.516;2023-09-18T04:50:55;93594.16;;;18.56;58.75
71107;BME280;58763;47.982;11.516;2023-09-18T04:53:21;93600.00;;;18.42;59.80
71107;BME280;58763;47.982;11.516;2023-09-18T04:55:46;93589.22;;;18.34;59.50
71107;BME280;58763;47.982;11.516;2023-09-18T04:58:15;93579.84;;;18.35;59.78
71107;BME280;58763;47.982;11.516;2023-09-18T05:00:41;93588.41;;;18.33;59.79
71107;BME280;58763;47.982;11.516;2023-09-18T05:03:07;93585.91;;;18.28;59.84
71107;BME280;58763;47.982;11.516;2023-09-18T05:05:36;93583.88;;;18.25;60.00
71107;BME280;58763;47.982;11.516;2023-09-18T05:08:04;93590.59;;;18.28;59.90
71107;BME280;58763;47.982;11.516;2023-09-18T05:10:36;93592.28;;;18.32;59.84
71107;BME280;58763;47.982;11.516;2023-09-18T05:13:02;93593.00;;;18.29;60.03
71107;BME280;58763;47.982;11.516;2023-09-18T05:15:29;93589.22;;;18.34;60.05
71107;BME280;58763;47.982;11.516;2023-09-18T05:17:55;93587.72;;;18.36;59.98
71107;BME280;58763;47.982;11.516;2023-09-18T05:20:23;93584.53;;;18.34;60.11
71107;BME280;58763;47.982;11.516;2023-09-18T05:22:51;93589.75;;;18.39;60.27
71107;BME280;58763;47.982;11.516;2023-09-18T05:25:23;93597.72;;;18.17;61.49
71107;BME280;58763;47.982;11.516;2023-09-18T05:27:50;93598.59;;;18.21;61.69
71107;BME280;58763;47.982;11.516;2023-09-18T05:30:25;93598.84;;;18.16;61.47
71107;BME280;58763;47.982;11.516;2023-09-18T05:32:56;93601.84;;;18.11;61.55
71107;BME280;58763;47.982;11.516;2023-09-18T05:35:22;93602.06;;;18.18;61.92
71107;BME280;58763;47.982;11.516;2023-09-18T05:37:49;93606.56;;;18.26;61.92
71107;BME280;58763;47.982;11.516;2023-09-18T05:40:16;93606.09;;;18.36;62.41
71107;BME280;58763;47.982;11.516;2023-09-18T05:42:43;93610.75;;;18.35;61.96
71107;BME280;58763;47.982;11.516;2023-09-18T05:45:10;93602.91;;;18.46;62.09
71107;BME280;58763;47.982;11.516;2023-09-18T05:47:36;93607.41;;;18.42;62.77
71107;BME280;58763;47.982;11.516;2023-09-18T05:50:07;93607.78;;;18.40;63.14
71107;BME280;58763;47.982;11.516;2023-09-18T05:52:34;93616.44;;;18.42;62.69
71107;BME280;58763;47.982;11.516;2023-09-18T05:55:00;93601.06;;;18.50;62.30
71107;BME280;58763;47.982;11.516;2023-09-18T05:57:26;93608.41;;;18.61;62.16
71107;BME280;58763;47.982;11.516;2023-09-18T05:59:57;93597.22;;;18.67;62.16
71107;BME280;58763;47.982;11.516;2023-09-18T06:02:23;93604.00;;;18.73;61.37
71107;BME280;58763;47.982;11.516;2023-09-18T06:04:54;93601.63;;;18.71;61.65
71107;BME280;58763;47.982;11.516;2023-09-18T06:07:21;93599.88;;;18.79;61.78
71107;BME280;58763;47.982;11.516;2023-09-18T06:09:48;93603.66;;;18.74;62.36
71107;BME280;58763;47.982;11.516;2023-09-18T06:12:13;93603.31;;;18.76;63.22
71107;BME280;58763;47.982;11.516;2023-09-18T06:14:39;93603.25;;;18.88;63.76
71107;BME280;58763;47.982;11.516;2023-09-18T06:17:05;93596.19;;;19.02;63.76
71107;BME280;58763;47.982;11.516;2023-09-18T06:19:31;93603.84;;;19.09;63.59
71107;BME280;58763;47.982;11.516;2023-09-18T06:21:58;93600.47;;;19.31;62.90
71107;BME280;58763;47.982;11.516;2023-09-18T06:24:23;93599.44;;;19.36;63.00
71107;BME280;58763;47.982;11.516;2023-09-18T06:26:49;93589.81;;;19.42;62.22
71107;BME280;58763;47.982;11.516;2023-09-18T06:29:16;93603.16;;;19.43;61.47
71107;BME280;58763;47.982;11.516;2023-09-18T06:31:43;93592.88;;;19.40;60.49
71107;BME280;58763;47.982;11.516;2023-09-18T06:34:08;93587.03;;;19.57;60.23
71107;BME280;58763;47.982;11.516;2023-09-18T06:36:34;93590.69;;;19.46;60.31
71107;BME280;58763;47.982;11.516;2023-09-18T06:38:59;93588.56;;;19.55;59.41
71107;BME280;58763;47.982;11.516;2023-09-18T06:41:25;93601.19;;;19.59;60.54
71107;BME280;58763;47.982;11.516;2023-09-18T06:43:50;93592.97;;;19.59;62.51
71107;BME280;58763;47.982;11.516;2023-09-18T06:46:16;93595.34;;;19.61;62.80
71107;BME280;58763;47.982;11.516;2023-09-18T06:48:41;93602.97;;;19.67;61.91
71107;BME280;58763;47.982;11.516;2023-09-18T06:51:14;93617.19;;;19.73;61.34
71107;BME280;58763;47.982;11.516;2023-09-18T06:53:40;93620.81;;;19.77;60.18
71107;BME280;58763;47.982;11.516;2023-09-18T06:56:05;93628.50;;;19.87;59.08
71107;BME280;58763;47.982;11.516;2023-09-18T06:58:31;93638.22;;;19.84;59.21
71107;BME280;58763;47.982;11.516;2023-09-18T07:00:56;93648.78;;;19.82;59.90
71107;BME280;58763;47.982;11.516;2023-09-18T07:03:23;93650.09;;;19.88;60.53
71107;BME280;58763;47.982;11.516;2023-09-18T07:05:49;93665.41;;;19.89;63.87
71107;BME280;58763;47.982;11.516;2023-09-18T07:08:15;93677.34;;;19.81;61.91
71107;BME280;58763;47.982;11.516;2023-09-18T07:10:44;93684.78;;;19.65;61.39
71107;BME280;58763;47.982;11.516;2023-09-18T07:13:10;93676.94;;;19.48;61.69
71107;BME280;58763;47.982;11.516;2023-09-18T07:15:37;93685.16;;;19.64;61.29
71107;BME280;58763;47.982;11.516;2023-09-18T07:18:03;93675.88;;;19.68;61.63
71107;BME280;58763;47.982;11.516;2023-09-18T07:20:29;93697.47;;;19.85;60.89
71107;BME280;58763;47.982;11.516;2023-09-18T07:22:56;93691.16;;;20.00;59.89
71107;BME280;58763;47.982;11.516;2023-09-18T07:25:22;93695.66;;;20.09;60.10
71107;BME280;58763;47.982;11.516;2023-09-18T07:27:47;93692.13;;;20.24;59.52
71107;BME280;58763;47.982;11.516;2023-09-18T07:30:14;93689.69;;;20.38;59.56
71107;BME280;58763;47.982;11.516;2023-09-18T07:32:45;93699.84;;;20.53;58.73
71107;BME280;58763;47.982;11.516;2023-09-18T07:35:11;93703.34;;;20.69;57.84
71107;BME280;58763;47.982;11.516;2023-09-18T07:37:38;93687.97;;;20.84;57.28
71107;BME280;58763;47.982;11.516;2023-09-18T07:40:07;93688.41;;;21.05;58.47
71107;BME280;58763;47.982;11.516;2023-09-18T07:42:33;93690.56;;;21.15;56.38
71107;BME280;58763;47.982;11.516;2023-09-18T07:44:59;93697.47;;;21.47;57.82
71107;BME280;58763;47.982;11.516;2023-09-18T07:47:25;93685.72;;;21.92;57.43
71107;BME280;58763;47.982;11.516;2023-09-18T07:49:51;93681.50;;;21.98;55.89
71107;BME280;58763;47.982;11.516;2023-09-18T07:52:17;93687.53;;;22.07;55.38
71107;BME280;58763;47.982;11.516;2023-09-18T07:54:43;93701.47;;;22.18;55.85
71107;BME280;58763;47.982;11.516;2023-09-18T07:57:09;93703.91;;;22.23;56.56
71107;BME280;58763;47.982;11.516;2023-09-18T07:59:38;93707.16;;;22.28;55.84
71107;BME280;58763;47.982;11.516;2023-09-18T08:02:04;93708.00;;;22.32;55.00
71107;BME280;58763;47.982;11.516;2023-09-18T08:04:31;93719.75;;;22.29;55.60
71107;BME280;58763;47.982;11.516;2023-09-18T08:06:57;93724.72;;;22.20;54.62
71107;BME280;58763;47.982;11.516;2023-09-18T08:09:23;93737.34;;;22.21;55.49
71107;BME280;58763;47.982;11.516;2023-09-18T08:11:49;93733.13;;;22.05;55.55
71107;BME280;58763;47.982;11.516;2023-09-18T08:14:15;93732.28;;;22.00;55.85
71107;BME280;58763;47.982;11.516;2023-09-18T08:16:42;93737.28;;;21.95;56.12
71107;BME280;58763;47.982;11.516;2023-09-18T08:19:08;93746.50;;;21.83;57.02
71107;BME280;58763;47.982;11.516;2023-09-18T08:21:34;93748.91;;;21.85;57.24
71107;BME280;58763;47.982;11.516;2023-09-18T08:24:00;93751.19;;;22.02;57.73
71107;BME280;58763;47.982;11.516;2023-09-18T08:26:25;93758.84;;;22.12;57.66
71107;BME280;58763;47.982;11.516;2023-09-18T08:28:52;93773.16;;;22.21;57.55
71107;BME280;58763;47.982;11.516;2023-09-18T08:31:18;93771.97;;;22.22;57.71
71107;BME280;58763;47.982;11.516;2023-09-18T08:33:44;93777.47;;;22.22;56.85
71107;BME280;58763;47.982;11.516;2023-09-18T08:36:09;93785.06;;;22.06;58.48
71107;BME280;58763;47.982;11.516;2023-09-18T08:38:35;93776.34;;;22.00;57.61
71107;BME280;58763;47.982;11.516;2023-09-18T08:41:00;93788.88;;;21.98;58.84
71107;BME280;58763;47.982;11.516;2023-09-18T08:43:27;93792.63;;;21.71;60.04
71107;BME280;58763;47.982;11.516;2023-09-18T08:45:55;93795.53;;;21.59;59.63
71107;BME280;58763;47.982;11.516;2023-09-18T08:48:27;93803.16;;;21.46;59.26
71107;BME280;58763;47.982;11.516;2023-09-18T08:51:04;93799.19;;;21.44;59.91
71107;BME280;58763;47.982;11.516;2023-09-18T08:53:31;93797.59;;;21.43;59.88
71107;BME280;58763;47.982;11.516;2023-09-18T08:55:58;93803.22;;;21.50;59.99
71107;BME280;58763;47.982;11.516;2023-09-18T08:58:35;93813.94;;;21.35;59.46
71107;BME280;58763;47.982;11.516;2023-09-18T09:01:03;93829.59;;;21.31;60.28
71107;BME280;58763;47.982;11.516;2023-09-18T09:03:30;93829.00;;;21.22;61.88
71107;BME280;58763;47.982;11.516;2023-09-18T09:05:56;93829.09;;;21.26;62.13
71107;BME280;58763;47.982;11.516;2023-09-18T09:08:22;93827.53;;;21.28;61.57
71107;BME280;58763;47.982;11.516;2023-09-18T09:10:49;93817.47;;;21.17;61.70
71107;BME280;58763;47.982;11.516;2023-09-18T09:13:15;93831.97;;;21.14;61.43
71107;BME280;58763;47.982;11.516;2023-09-18T09:15:45;93826.19;;;21.03;62.40
71107;BME280;58763;47.982;11.516;2023-09-18T09:18:12;93822.75;;;21.06;62.16
71107;BME280;58763;47.982;11.516;2023-09-18T09:20:38;93822.19;;;21.16;62.13
71107;BME280;58763;47.982;11.516;2023-09-18T09:23:06;93814.84;;;21.40;62.57
71107;BME280;58763;47.982;11.516;2023-09-18T09:25:32;93816.94;;;21.46;62.27
71107;BME280;58763;47.982;11.516;2023-09-18T09:28:00;93806.63;;;21.62;62.74
71107;BME280;58763;47.982;11.516;2023-09-18T09:30:27;93819.44;;;21.74;61.22
71107;BME280;58763;47.982;11.516;2023-09-18T09:32:55;93809.72;;;21.99;60.90
71107;BME280;58763;47.982;11.516;2023-09-18T09:35:26;93811.44;;;22.07;59.82
71107;BME280;58763;47.982;11.516;2023-09-18T09:38:19;93823.16;;;22.23;60.70
71107;BME280;58763;47.982;11.516;2023-09-18T09:40:46;93826.19;;;22.18;59.65
71107;BME280;58763;47.982;11.516;2023-09-18T09:43:13;93825.66;;;22.09;60.27
71107;BME280;58763;47.982;11.516;2023-09-18T09:45:41;93822.47;;;22.07;59.80
71107;BME280;58763;47.982;11.516;2023-09-18T09:48:07;93823.53;;;22.22;59.22
71107;BME280;58763;47.982;11.516;2023-09-18T09:50:43;93819.53;;;22.42;58.49
71107;BME280;58763;47.982;11.516;2023-09-18T09:53:13;93830.47;;;22.38;58.75
71107;BME280;58763;47.982;11.516;2023-09-18T09:55:40;93841.16;;;22.40;59.20
71107;BME280;58763;47.982;11.516;2023-09-18T09:58:08;93847.59;;;22.47;59.95
71107;BME280;58763;47.982;11.516;2023-09-18T10:00:41;93838.09;;;22.45;60.75
71107;BME280;58763;47.982;11.516;2023-09-18T10:03:10;93823.47;;;22.63;60.98
71107;BME280;58763;47.982;11.516;2023-09-18T10:05:37;93821.06;;;22.62;59.96
71107;BME280;58763;47.982;11.516;2023-09-18T10:08:08;93830.72;;;22.52;59.28
71107;BME280;58763;47.982;11.516;2023-09-18T10:10:36;93831.56;;;22.34;59.71
71107;BME280;58763;47.982;11.516;2023-09-18T10:13:10;93819.34;;;22.31;59.84
71107;BME280;58763;47.982;11.516;2023-09-18T10:15:38;93823.81;;;22.17;60.08
71107;BME280;58763;47.982;11.516;2023-09-18T10:18:07;93825.94;;;22.04;61.36
71107;BME280;58763;47.982;11.516;2023-09-18T10:20:40;93826.44;;;22.10;61.18
71107;BME280;58763;47.982;11.516;2023-09-18T10:23:25;93837.72;;;22.24;60.90
71107;BME280;58763;47.982;11.516;2023-09-18T10:25:56;93834.03;;;22.16;61.54
71107;BME280;58763;47.982;11.516;2023-09-18T10:28:26;93842.75;;;21.99;61.41
71107;BME280;58763;47.982;11.516;2023-09-18T10:30:56;93838.75;;;22.16;62.25
71107;BME280;58763;47.982;11.516;2023-09-18T10:33:23;93848.47;;;22.32;61.18
71107;BME280;58763;47.982;11.516;2023-09-18T10:35:49;93846.09;;;22.31;61.86
71107;BME280;58763;47.982;11.516;2023-09-18T10:38:16;93845.00;;;22.35;60.26
71107;BME280;58763;47.982;11.516;2023-09-18T10:40:43;93845.59;;;22.25;60.63
71107;BME280;58763;47.982;11.516;2023-09-18T10:43:11;93852.09;;;22.36;60.49
71107;BME280;58763;47.982;11.516;2023-09-18T10:45:37;93849.75;;;22.38;60.44
71107;BME280;58763;47.982;11.516;2023-09-18T10:48:03;93849.72;;;22.35;60.46
71107;BME280;58763;47.982;11.516;2023-09-18T10:50:29;93852.59;;;22.19;60.79
71107;BME280;58763;47.982;11.516;2023-09-18T10:52:58;93854.59;;;22.22;61.41
71107;BME280;58763;47.982;11.516;2023-09-18T10:55:25;93848.88;;;22.31;60.89
71107;BME280;58763;47.982;11.516;2023-09-18T10:58:00;93848.53;;;22.36;61.26
71107;BME280;58763;47.982;11.516;2023-09-18T11:00:28;93858.59;;;22.47;61.15
71107;BME280;58763;47.982;11.516;2023-09-18T11:03:09;93856.78;;;22.36;60.93
71107;BME280;58763;47.982;11.516;2023-09-18T11:05:35;93857.69;;;22.40;61.41
71107;BME280;58763;47.982;11.516;2023-09-18T11:08:30;93859.50;;;22.32;60.95
71107;BME280;58763;47.982;11.516;2023-09-18T11:11:10;93871.78;;;22.38;60.76
71107;BME280;58763;47.982;11.516;2023-09-18T11:13:42;93869.25;;;22.49;61.36
71107;BME280;58763;47.982;11.516;2023-09-18T11:21:30;93895.22;;;21.87;61.75
71107;BME280;58763;47.982;11.516;2023-09-18T11:24:07;93907.34;;;21.48;61.15
71107;BME280;58763;47.982;11.516;2023-09-18T11:26:40;93903.69;;;21.24;61.75
71107;BME280;58763;47.982;11.516;2023-09-18T11:29:09;93909.81;;;21.02;62.23
71107;BME280;58763;47.982;11.516;2023-09-18T11:31:47;93926.41;;;20.90;63.15
71107;BME280;58763;47.982;11.516;2023-09-18T11:34:34;93923.84;;;20.66;63.94
71107;BME280;58763;47.982;11.516;2023-09-18T11:37:21;93936.59;;;20.58;64.25
71107;BME280;58763;47.982;11.516;2023-09-18T11:39:47;93942.03;;;20.55;65.49
71107;BME280;58763;47.982;11.516;2023-09-18T11:42:19;93954.50;;;20.37;66.20
71107;BME280;58763;47.982;11.516;2023-09-18T11:44:49;93939.44;;;20.19;66.85
71107;BME280;58763;47.982;11.516;2023-09-18T11:47:19;93954.66;;;19.88;67.36
71107;BME280;58763;47.982;11.516;2023-09-18T11:49:53;93952.69;;;19.73;67.55
71107;BME280;58763;47.982;11.516;2023-09-18T11:52:27;93968.59;;;19.56;68.26
71107;BME280;58763;47.982;11.516;2023-09-18T11:54:54;93965.91;;;19.44;68.17
71107;BME280;58763;47.982;11.516;2023-09-18T11:57:20;93970.00;;;19.38;68.40
71107;BME280;58763;47.982;11.516;2023-09-18T11:59:47;93983.03;;;19.28;69.30
71107;BME280;58763;47.982;11.516;2023-09-18T12:02:13;93980.63;;;19.27;70.43
71107;BME280;58763;47.982;11.516;2023-09-18T12:04:46;93994.78;;;19.17;70.79
71107;BME280;58763;47.982;11.516;2023-09-18T12:07:13;93984.88;;;19.00;71.36
71107;BME280;58763;47.982;11.516;2023-09-18T12:09:39;93998.00;;;18.83;72.85
71107;BME280;58763;47.982;11.516;2023-09-18T12:12:05;94004.81;;;18.65;73.86
71107;BME280;58763;47.982;11.516;2023-09-18T12:14:32;94008.03;;;18.67;74.40
71107;BME280;58763;47.982;11.516;2023-09-18T12:17:02;94005.75;;;18.69;74.43
71107;BME280;58763;47.982;11.516;2023-09-18T12:19:29;94011.78;;;18.41;73.84
71107;BME280;58763;47.982;11.516;2023-09-18T12:21:56;94016.28;;;18.13;74.98
71107;BME280;58763;47.982;11.516;2023-09-18T12:24:24;94013.47;;;18.22;75.59
71107;BME280;58763;47.982;11.516;2023-09-18T12:26:54;94022.50;;;18.34;74.48
71107;BME280;58763;47.982;11.516;2023-09-18T12:29:20;94035.91;;;18.15;74.83
71107;BME280;58763;47.982;11.516;2023-09-18T12:31:46;94031.28;;;18.07;76.03
71107;BME280;58763;47.982;11.516;2023-09-18T12:34:17;94043.31;;;18.15;76.41
71107;BME280;58763;47.982;11.516;2023-09-18T12:36:44;94034.16;;;17.90;78.25
71107;BME280;58763;47.982;11.516;2023-09-18T12:39:12;94042.19;;;17.95;78.32
71107;BME280;58763;47.982;11.516;2023-09-18T12:41:43;94036.59;;;17.91;79.65
71107;BME280;58763;47.982;11.516;2023-09-18T12:44:09;94034.44;;;17.97;78.92
71107;BME280;58763;47.982;11.516;2023-09-18T12:46:36;94028.84;;;17.93;79.70
71107;BME280;58763;47.982;11.516;2023-09-18T12:49:19;94035.22;;;17.98;79.88
71107;BME280;58763;47.982;11.516;2023-09-18T12:51:57;94030.28;;;18.12;79.51
71107;BME280;58763;47.982;11.516;2023-09-18T12:54:39;94029.66;;;18.27;79.44
71107;BME280;58763;47.982;11.516;2023-09-18T12:57:05;94029.31;;;18.28;79.78
71107;BME280;58763;47.982;11.516;2023-09-18T12:59:32;94033.44;;;18.34;79.94
71107;BME280;58763;47.982;11.516;2023-09-18T13:01:59;94030.19;;;18.41;80.36